Time;durP1;ratioP1;P1;durP2;ratioP2;P2;SDS_P1;SDS_P2;PMS_P1;PMS_P2;Temp;Humidity;BMP_temperature;BMP_pressure;BME280_temperature;BME280_humidity;BME280_pressure;Samples;Min_cycle;Max_cycle;Signal;HPM_P1;HPM_P2
2021/11/24 00:00:00;;;;;;;74.77;27.90;;;5.10;99.90;;;;;;4456193;32;20190;-67
2021/11/24 00:02:27;;;;;;;78.63;28.50;;;5.10;99.90;;;;;;4456443;32;20174;-67
2021/11/24 00:04:54;;;;;;;77.17;27.63;;;5.10;99.90;;;;;;4456445;32;20175;-67
2021/11/24 00:07:21;;;;;;;75.07;28.13;;;5.10;99.90;;;;;;4456704;32;20459;-67
2021/11/24 00:09:48;;;;;;;78.37;29.37;;;5.00;99.90;;;;;;4457107;32;20177;-67
2021/11/24 00:12:15;;;;;;;78.00;28.90;;;5.00;99.90;;;;;;4457737;32;20199;-67
2021/11/24 00:14:44;;;;;;;75.60;29.03;;;5.00;99.90;;;;;;4456353;32;20183;-67
2021/11/24 00:17:11;;;;;;;77.60;30.07;;;5.00;99.90;;;;;;4455811;32;20144;-67
2021/11/24 00:19:37;;;;;;;86.17;29.43;;;5.00;99.90;;;;;;4456335;32;20402;-67
2021/11/24 00:22:04;;;;;;;81.57;29.07;;;5.00;99.90;;;;;;4455029;32;20255;-67
2021/11/24 00:24:32;;;;;;;78.87;29.70;;;5.00;99.90;;;;;;4454623;32;20196;-67
2021/11/24 00:26:59;;;;;;;73.20;28.00;;;5.10;99.90;;;;;;4456735;32;20223;-67
2021/11/24 00:29:26;;;;;;;75.53;27.50;;;5.10;99.90;;;;;;4456259;32;20185;-67
2021/11/24 00:31:53;;;;;;;70.00;27.13;;;5.10;99.90;;;;;;4446777;32;20199;-67
2021/11/24 00:34:20;;;;;;;64.67;25.97;;;5.10;99.90;;;;;;4451833;32;20236;-67
2021/11/24 00:36:47;;;;;;;74.40;27.03;;;5.10;99.90;;;;;;4445367;32;20201;-67
2021/11/24 00:39:14;;;;;;;71.53;26.60;;;5.10;99.90;;;;;;4455292;32;20166;-67
2021/11/24 00:41:41;;;;;;;66.37;26.23;;;5.10;99.90;;;;;;4454616;32;20189;-67
2021/11/24 00:44:08;;;;;;;69.37;27.60;;;5.10;99.90;;;;;;4455546;32;20174;-67
2021/11/24 00:46:35;;;;;;;63.73;25.87;;;5.10;99.90;;;;;;4455041;32;20198;-67
2021/11/24 00:49:06;;;;;;;61.67;25.33;;;5.10;99.90;;;;;;4455555;32;20215;-66
2021/11/24 00:51:33;;;;;;;76.23;26.97;;;5.10;99.90;;;;;;4455640;32;20171;-67
2021/11/24 00:54:00;;;;;;;61.93;24.87;;;5.10;99.90;;;;;;4455531;32;20240;-67
2021/11/24 00:56:28;;;;;;;68.23;25.93;;;5.10;99.90;;;;;;4455171;32;20220;-67
2021/11/24 00:58:55;;;;;;;65.93;26.13;;;5.10;99.90;;;;;;4453800;32;20274;-67
2021/11/24 01:01:21;;;;;;;68.20;25.33;;;5.10;99.90;;;;;;4456741;32;20229;-67
2021/11/24 01:03:49;;;;;;;64.63;25.93;;;5.10;99.90;;;;;;4454963;32;20170;-67
2021/11/24 01:06:17;;;;;;;62.40;25.60;;;5.10;99.90;;;;;;4455551;32;20200;-67
2021/11/24 01:08:44;;;;;;;68.40;25.00;;;5.10;99.90;;;;;;4455466;32;20264;-67
2021/11/24 01:11:11;;;;;;;64.60;26.30;;;5.10;99.90;;;;;;4455993;32;20194;-67
2021/11/24 01:13:39;;;;;;;64.00;25.20;;;5.10;99.90;;;;;;4455376;32;20241;-67
2021/11/24 01:16:06;;;;;;;61.40;24.17;;;5.10;99.90;;;;;;4453565;32;20225;-67
2021/11/24 01:18:33;;;;;;;63.77;24.90;;;5.20;99.90;;;;;;4455770;32;20194;-67
2021/11/24 01:21:00;;;;;;;61.37;24.80;;;5.20;99.90;;;;;;4454049;32;20194;-67
2021/11/24 01:23:27;;;;;;;60.77;25.10;;;5.10;99.90;;;;;;4453685;32;20536;-67
2021/11/24 01:25:55;;;;;;;61.33;24.30;;;5.10;99.90;;;;;;4454412;32;20170;-67
2021/11/24 01:28:22;;;;;;;64.80;26.23;;;5.20;99.90;;;;;;4452828;32;20497;-67
2021/11/24 01:30:49;;;;;;;56.07;23.27;;;5.10;99.90;;;;;;4453998;32;20226;-67
2021/11/24 01:33:16;;;;;;;56.03;23.07;;;5.10;99.90;;;;;;4453459;32;20198;-67
2021/11/24 01:35:43;;;;;;;58.37;22.50;;;5.20;99.90;;;;;;4453966;32;20221;-67
2021/11/24 01:38:11;;;;;;;58.83;23.23;;;5.10;99.90;;;;;;4455400;32;20178;-67
2021/11/24 01:40:38;;;;;;;55.27;22.23;;;5.10;99.90;;;;;;4454929;32;20199;-67
2021/11/24 01:43:08;;;;;;;51.93;22.33;;;5.10;99.90;;;;;;4454233;32;20440;-67
2021/11/24 01:45:36;;;;;;;56.80;22.87;;;5.10;99.90;;;;;;4453263;32;20173;-67
2021/11/24 01:48:05;;;;;;;60.87;22.93;;;5.10;99.90;;;;;;4455386;32;20243;-67
2021/11/24 01:50:33;;;;;;;50.60;21.40;;;5.10;99.90;;;;;;4454987;32;20262;-67
2021/11/24 01:53:00;;;;;;;51.30;21.90;;;5.10;99.90;;;;;;4454930;32;20171;-67
2021/11/24 01:55:27;;;;;;;48.53;20.73;;;5.10;99.90;;;;;;4455860;32;20147;-67
2021/11/24 01:57:55;;;;;;;47.50;18.80;;;5.10;99.90;;;;;;4455401;32;20186;-67
2021/11/24 02:00:30;;;;;;;46.57;19.67;;;5.10;99.90;;;;;;4454455;32;20202;-67
2021/11/24 02:02:58;;;;;;;49.23;20.67;;;5.10;99.90;;;;;;4453477;32;20530;-67
2021/11/24 02:05:25;;;;;;;44.00;19.13;;;5.10;99.90;;;;;;4454128;32;20238;-67
2021/11/24 02:07:52;;;;;;;43.80;18.70;;;5.10;99.90;;;;;;4453573;32;20368;-67
2021/11/24 02:10:20;;;;;;;44.83;18.00;;;5.10;99.90;;;;;;4456453;32;20162;-67
2021/11/24 02:12:48;;;;;;;43.13;18.10;;;5.10;99.90;;;;;;4454643;32;20174;-67
2021/11/24 02:15:16;;;;;;;41.43;18.30;;;5.10;99.90;;;;;;4456148;32;20134;-66
2021/11/24 02:17:44;;;;;;;41.30;18.07;;;5.10;99.90;;;;;;4453140;32;20180;-67
2021/11/24 02:20:13;;;;;;;40.27;17.10;;;5.10;99.90;;;;;;4454338;32;20178;-67
2021/11/24 02:22:41;;;;;;;40.47;17.27;;;5.10;99.90;;;;;;4454470;32;20186;-67
2021/11/24 02:25:08;;;;;;;41.10;18.00;;;5.00;99.90;;;;;;4454284;32;20174;-67
2021/11/24 02:27:36;;;;;;;41.37;17.60;;;5.10;99.90;;;;;;4454362;32;20191;-67
2021/11/24 02:30:03;;;;;;;42.03;18.53;;;5.10;99.90;;;;;;4452933;32;20212;-67
2021/11/24 02:32:30;;;;;;;39.60;17.87;;;5.10;99.90;;;;;;4454343;32;20189;-67
2021/11/24 02:34:58;;;;;;;40.83;18.03;;;5.10;99.90;;;;;;4453008;32;20189;-67
2021/11/24 02:37:25;;;;;;;43.30;17.73;;;5.10;99.90;;;;;;4454844;32;20183;-67
2021/11/24 02:39:52;;;;;;;39.30;17.17;;;5.00;99.90;;;;;;4452633;32;20194;-67
2021/11/24 02:42:19;;;;;;;45.13;18.13;;;5.00;99.90;;;;;;4454999;32;20231;-67
2021/11/24 02:44:46;;;;;;;43.23;19.17;;;5.10;99.90;;;;;;4454237;32;20175;-67
2021/11/24 02:47:19;;;;;;;44.03;18.47;;;5.00;99.90;;;;;;4454026;32;20239;-67
2021/11/24 02:49:52;;;;;;;45.57;18.70;;;5.10;99.90;;;;;;4453441;32;20223;-68
2021/11/24 02:52:20;;;;;;;46.00;19.33;;;5.10;99.90;;;;;;4453945;32;20372;-67
2021/11/24 02:54:52;;;;;;;48.17;19.63;;;5.10;99.90;;;;;;4453296;32;20421;-67
2021/11/24 02:57:28;;;;;;;50.43;21.03;;;5.00;99.90;;;;;;4453005;32;20527;-66
2021/11/24 02:59:55;;;;;;;47.67;19.87;;;5.00;99.90;;;;;;4452541;32;20205;-67
2021/11/24 03:02:22;;;;;;;47.43;20.17;;;5.00;99.90;;;;;;4453481;32;20166;-67
2021/11/24 03:04:49;;;;;;;46.10;19.83;;;5.00;99.90;;;;;;4453823;32;20197;-67
2021/11/24 03:07:16;;;;;;;45.73;19.70;;;5.00;99.90;;;;;;4453357;32;20172;-67
2021/11/24 03:09:45;;;;;;;48.17;20.07;;;5.00;99.90;;;;;;4454248;32;20217;-67
2021/11/24 03:12:13;;;;;;;49.97;20.07;;;5.00;99.90;;;;;;4453282;32;20269;-67
2021/11/24 03:14:41;;;;;;;47.07;19.27;;;5.00;99.90;;;;;;4452990;32;20228;-67
2021/11/24 03:17:08;;;;;;;48.20;20.43;;;5.00;99.90;;;;;;4454406;32;20204;-67
2021/11/24 03:19:35;;;;;;;45.43;19.50;;;5.00;99.90;;;;;;4453048;32;20223;-67
2021/11/24 03:22:02;;;;;;;47.53;20.53;;;5.00;99.90;;;;;;4454026;32;20302;-67
2021/11/24 03:24:29;;;;;;;50.20;21.27;;;5.00;99.90;;;;;;4454082;32;20190;-67
2021/11/24 03:26:56;;;;;;;48.20;20.50;;;5.00;99.90;;;;;;4451865;32;20205;-67
2021/11/24 03:29:23;;;;;;;50.17;21.13;;;5.00;99.90;;;;;;4452309;32;20202;-67
2021/11/24 03:31:51;;;;;;;50.00;21.47;;;5.00;99.90;;;;;;4452965;32;20489;-67
2021/11/24 03:34:18;;;;;;;51.80;21.50;;;5.00;99.90;;;;;;4454134;32;20392;-67
2021/11/24 03:36:45;;;;;;;49.33;21.30;;;5.00;99.90;;;;;;4452784;32;20241;-67
2021/11/24 03:39:12;;;;;;;53.20;21.17;;;5.00;99.90;;;;;;4452896;32;20182;-66
2021/11/24 03:41:39;;;;;;;54.43;21.80;;;5.00;99.90;;;;;;4453454;32;20216;-67
2021/11/24 03:44:06;;;;;;;47.33;20.60;;;4.90;99.90;;;;;;4452739;32;20451;-67
2021/11/24 03:46:33;;;;;;;51.50;20.47;;;4.90;99.90;;;;;;4452662;32;20209;-67
2021/11/24 03:49:00;;;;;;;50.43;20.53;;;4.80;99.90;;;;;;4452014;32;20440;-66
2021/11/24 03:51:27;;;;;;;54.17;21.67;;;4.80;99.90;;;;;;4454471;32;20188;-67
2021/11/24 03:53:54;;;;;;;55.47;21.13;;;4.90;99.90;;;;;;4454932;32;20193;-67
2021/11/24 03:56:20;;;;;;;55.80;21.33;;;4.80;99.90;;;;;;4456583;32;20172;-66
2021/11/24 03:58:47;;;;;;;55.20;21.50;;;4.80;99.90;;;;;;4455431;32;20563;-67
2021/11/24 04:01:14;;;;;;;53.93;21.30;;;4.80;99.90;;;;;;4456246;32;20443;-67
2021/11/24 04:03:41;;;;;;;56.60;20.83;;;4.80;99.90;;;;;;4456440;32;20193;-66
2021/11/24 04:06:08;;;;;;;56.33;20.70;;;4.80;99.90;;;;;;4456304;32;20177;-67
2021/11/24 04:08:35;;;;;;;57.00;21.80;;;4.80;99.90;;;;;;4456544;32;20209;-67
2021/11/24 04:11:03;;;;;;;55.00;19.97;;;4.90;99.90;;;;;;4456107;32;20175;-66
2021/11/24 04:13:30;;;;;;;58.60;21.00;;;4.80;99.90;;;;;;4456541;32;20178;-66
2021/11/24 04:15:57;;;;;;;52.37;21.00;;;4.80;99.90;;;;;;4455428;32;20167;-67
2021/11/24 04:18:24;;;;;;;54.53;21.33;;;4.80;99.90;;;;;;4455519;32;20166;-67
2021/11/24 04:20:55;;;;;;;58.57;21.90;;;4.80;99.90;;;;;;4456417;32;20199;-66
2021/11/24 04:23:22;;;;;;;59.10;21.33;;;4.80;99.90;;;;;;4454452;32;20575;-66
2021/11/24 04:25:50;;;;;;;61.70;22.17;;;4.80;99.90;;;;;;4454443;32;20167;-66
2021/11/24 04:28:17;;;;;;;54.17;20.37;;;4.90;99.90;;;;;;4454909;32;20162;-67
2021/11/24 04:30:44;;;;;;;54.70;20.70;;;4.90;99.90;;;;;;4454532;32;20539;-67
2021/11/24 04:33:11;;;;;;;52.30;20.17;;;4.90;99.90;;;;;;4455978;32;20182;-66
2021/11/24 04:35:39;;;;;;;54.00;20.90;;;4.90;99.90;;;;;;4456199;32;20183;-66
2021/11/24 04:38:06;;;;;;;57.20;20.20;;;4.90;99.90;;;;;;4455698;32;20242;-66
2021/11/24 04:40:33;;;;;;;62.43;20.67;;;4.90;99.90;;;;;;4456382;32;20486;-66
2021/11/24 04:43:03;;;;;;;50.40;19.67;;;4.90;99.90;;;;;;4455617;32;20179;-66
2021/11/24 04:45:30;;;;;;;58.97;21.37;;;4.90;99.90;;;;;;4454704;32;20166;-66
2021/11/24 04:47:58;;;;;;;59.47;20.67;;;4.90;99.90;;;;;;4454341;32;20236;-66
2021/11/24 04:50:25;;;;;;;55.50;20.50;;;4.90;99.90;;;;;;4454241;32;20174;-66
2021/11/24 04:52:52;;;;;;;50.23;19.87;;;4.90;99.90;;;;;;4454660;32;20220;-66
2021/11/24 04:55:19;;;;;;;55.80;20.97;;;4.90;99.90;;;;;;4455701;32;20193;-66
2021/11/24 04:57:47;;;;;;;57.47;20.17;;;4.90;99.90;;;;;;4455275;32;20205;-66
2021/11/24 05:00:18;;;;;;;52.73;19.23;;;4.90;99.90;;;;;;4455721;32;20171;-66
2021/11/24 05:02:46;;;;;;;52.57;20.07;;;4.90;99.90;;;;;;4455544;32;20166;-66
2021/11/24 05:05:13;;;;;;;49.23;18.97;;;5.00;99.90;;;;;;4455483;32;20201;-66
2021/11/24 05:07:40;;;;;;;52.20;19.37;;;4.90;99.90;;;;;;4454815;32;20187;-66
2021/11/24 05:10:07;;;;;;;50.30;18.43;;;4.90;99.90;;;;;;4455487;32;20206;-66
2021/11/24 05:12:35;;;;;;;52.13;20.27;;;4.90;99.90;;;;;;4454964;32;20228;-66
2021/11/24 05:15:04;;;;;;;47.57;19.17;;;4.90;99.90;;;;;;4455812;32;20175;-66
2021/11/24 05:17:32;;;;;;;49.10;19.37;;;4.90;99.90;;;;;;4455338;32;20191;-66
2021/11/24 05:20:00;;;;;;;50.63;19.33;;;4.90;99.90;;;;;;4455213;32;20167;-66
2021/11/24 05:22:27;;;;;;;51.10;19.10;;;4.90;99.90;;;;;;4455182;32;20178;-66
2021/11/24 05:24:55;;;;;;;53.07;20.03;;;5.00;99.90;;;;;;4454960;32;20203;-66
2021/11/24 05:27:22;;;;;;;49.47;18.77;;;4.90;99.90;;;;;;4455457;32;20428;-67
2021/11/24 05:29:49;;;;;;;49.40;17.83;;;5.00;99.90;;;;;;4456606;32;20206;-66
2021/11/24 05:32:16;;;;;;;44.47;18.40;;;5.00;99.90;;;;;;4453510;32;20170;-66
2021/11/24 05:34:43;;;;;;;47.77;18.03;;;4.90;99.90;;;;;;4453279;32;20444;-66
2021/11/24 05:37:10;;;;;;;45.23;18.83;;;5.00;99.90;;;;;;4454024;32;20169;-66
2021/11/24 05:39:37;;;;;;;45.87;18.73;;;5.00;99.90;;;;;;4454242;32;20264;-66
2021/11/24 05:42:05;;;;;;;41.30;17.77;;;5.00;99.90;;;;;;4453414;32;20206;-67
2021/11/24 05:44:36;;;;;;;42.33;18.30;;;5.00;99.90;;;;;;4454676;32;20187;-66
2021/11/24 05:47:09;;;;;;;44.83;17.53;;;5.00;99.90;;;;;;4453245;32;20197;-66
2021/11/24 05:49:37;;;;;;;44.40;17.40;;;4.90;99.90;;;;;;4455361;32;20141;-66
2021/11/24 05:52:06;;;;;;;40.53;17.50;;;5.00;99.90;;;;;;4454984;32;20197;-66
2021/11/24 05:54:35;;;;;;;40.27;17.90;;;5.00;99.90;;;;;;4454255;32;20214;-66
2021/11/24 05:57:03;;;;;;;44.03;18.33;;;5.00;99.90;;;;;;4453229;32;20235;-66
2021/11/24 05:59:32;;;;;;;42.57;17.00;;;5.00;99.90;;;;;;4453813;32;20163;-66
2021/11/24 06:01:59;;;;;;;42.07;17.73;;;5.00;99.90;;;;;;4454334;32;20205;-66
2021/11/24 06:04:26;;;;;;;39.87;17.30;;;5.00;99.90;;;;;;4452802;32;20484;-66
2021/11/24 06:06:53;;;;;;;39.83;17.10;;;5.00;99.90;;;;;;4453570;32;20399;-66
2021/11/24 06:09:20;;;;;;;37.77;16.93;;;5.00;99.90;;;;;;4456130;32;20140;-66
2021/11/24 06:11:47;;;;;;;38.07;17.10;;;5.00;99.90;;;;;;4452890;32;20197;-66
2021/11/24 06:14:13;;;;;;;39.37;17.17;;;5.00;99.90;;;;;;4455199;32;20191;-66
2021/11/24 06:16:40;;;;;;;42.27;17.33;;;5.00;99.90;;;;;;4452658;32;20250;-66
2021/11/24 06:19:07;;;;;;;40.43;17.47;;;5.10;99.90;;;;;;4454502;32;20176;-66
2021/11/24 06:21:34;;;;;;;38.37;17.97;;;5.00;99.90;;;;;;4453057;32;20208;-66
2021/11/24 06:24:01;;;;;;;38.63;16.77;;;5.10;99.90;;;;;;4454533;32;20202;-66
2021/11/24 06:26:28;;;;;;;42.37;17.37;;;5.00;99.90;;;;;;4454383;32;20279;-66
2021/11/24 06:28:55;;;;;;;37.97;17.90;;;5.00;99.90;;;;;;4455911;32;20156;-66
2021/11/24 06:31:25;;;;;;;37.07;15.97;;;5.00;99.90;;;;;;4454898;32;20201;-66
2021/11/24 06:33:56;;;;;;;38.97;16.50;;;5.10;99.90;;;;;;4452594;32;20223;-66
2021/11/24 06:36:29;;;;;;;38.43;16.27;;;5.00;99.90;;;;;;4456352;32;20134;-66
2021/11/24 06:38:56;;;;;;;35.50;15.97;;;5.10;99.90;;;;;;4454007;32;20140;-66
2021/11/24 06:41:23;;;;;;;39.13;16.70;;;5.10;99.90;;;;;;4452507;32;20162;-66
2021/11/24 06:43:50;;;;;;;39.03;16.20;;;5.10;99.90;;;;;;4453308;32;20208;-66
2021/11/24 06:46:17;;;;;;;36.73;16.13;;;5.10;99.90;;;;;;4452751;32;20214;-66
2021/11/24 06:48:44;;;;;;;35.17;16.40;;;5.10;99.90;;;;;;4453239;32;20215;-66
2021/11/24 06:51:11;;;;;;;32.83;15.83;;;5.10;99.90;;;;;;4454816;32;20201;-66
2021/11/24 06:53:38;;;;;;;36.30;15.87;;;5.10;99.90;;;;;;4453924;32;20261;-67
2021/11/24 06:56:05;;;;;;;36.80;15.80;;;5.10;99.90;;;;;;4454184;32;20392;-66
2021/11/24 06:58:32;;;;;;;37.20;15.63;;;5.10;99.90;;;;;;4454967;32;20256;-66
2021/11/24 07:01:01;;;;;;;35.67;16.30;;;5.10;99.90;;;;;;4453603;32;20163;-66
2021/11/24 07:03:29;;;;;;;33.37;15.47;;;5.10;99.90;;;;;;4454007;32;20183;-66
2021/11/24 07:05:56;;;;;;;34.20;15.57;;;5.20;99.90;;;;;;4452337;32;20254;-66
2021/11/24 07:08:23;;;;;;;34.40;14.97;;;5.20;99.90;;;;;;4452876;32;20186;-66
2021/11/24 07:10:50;;;;;;;31.97;15.10;;;5.20;99.90;;;;;;4452462;32;20179;-66
2021/11/24 07:13:17;;;;;;;30.77;14.47;;;5.20;99.90;;;;;;4454117;32;20233;-66
2021/11/24 07:15:44;;;;;;;30.67;14.93;;;5.20;99.90;;;;;;4452896;32;20228;-66
2021/11/24 07:18:11;;;;;;;32.73;14.50;;;5.20;99.90;;;;;;4453645;32;20542;-66
2021/11/24 07:20:38;;;;;;;28.63;13.87;;;5.20;99.90;;;;;;4453126;32;20203;-66
2021/11/24 07:23:05;;;;;;;31.87;14.97;;;5.20;99.90;;;;;;4453633;32;20199;-67
2021/11/24 07:25:32;;;;;;;30.13;14.97;;;5.20;99.90;;;;;;4452763;32;20555;-66
2021/11/24 07:27:59;;;;;;;29.57;14.67;;;5.30;99.90;;;;;;4457280;32;20155;-66
2021/11/24 07:30:27;;;;;;;32.60;15.13;;;5.30;99.90;;;;;;4455756;32;20177;-66
2021/11/24 07:32:54;;;;;;;32.70;15.17;;;5.30;99.90;;;;;;4455653;32;20509;-66
2021/11/24 07:35:21;;;;;;;31.10;15.17;;;5.30;99.90;;;;;;4456903;32;20171;-66
2021/11/24 07:37:48;;;;;;;32.73;15.40;;;5.30;99.90;;;;;;4456549;32;20450;-67
2021/11/24 07:40:16;;;;;;;29.03;14.93;;;5.40;99.90;;;;;;4457133;32;20145;-67
2021/11/24 07:42:43;;;;;;;30.30;14.70;;;5.40;99.90;;;;;;4456863;32;20199;-66
2021/11/24 07:45:10;;;;;;;29.30;14.50;;;5.40;99.90;;;;;;4456082;32;20606;-67
2021/11/24 07:47:37;;;;;;;34.23;15.43;;;5.40;99.90;;;;;;4457028;32;20256;-66
2021/11/24 07:50:05;;;;;;;30.13;15.20;;;5.50;99.90;;;;;;4455426;32;20211;-67
2021/11/24 07:52:32;;;;;;;29.93;14.87;;;5.50;99.90;;;;;;4456998;32;20170;-67
2021/11/24 07:54:59;;;;;;;31.37;15.30;;;5.50;99.90;;;;;;4456547;32;20484;-67
2021/11/24 07:57:28;;;;;;;30.33;14.90;;;5.50;99.90;;;;;;4456769;32;20199;-66
2021/11/24 07:59:55;;;;;;;30.83;14.43;;;5.60;99.90;;;;;;4454901;32;20175;-67
2021/11/24 08:02:23;;;;;;;30.70;15.27;;;5.60;99.90;;;;;;4455385;32;20174;-68
2021/11/24 08:04:51;;;;;;;31.33;15.13;;;5.60;99.90;;;;;;4455210;32;20191;-67
2021/11/24 08:07:18;;;;;;;31.13;15.33;;;5.60;99.90;;;;;;4455317;32;20246;-67
2021/11/24 08:09:45;;;;;;;31.50;15.23;;;5.50;99.90;;;;;;4456665;32;20195;-66
2021/11/24 08:12:32;;;;;;;35.60;16.67;;;5.50;99.90;;;;;;4455203;32;20537;-66
2021/11/24 08:15:00;;;;;;;32.50;15.50;;;5.50;99.90;;;;;;4456796;32;20188;-66
2021/11/24 08:17:27;;;;;;;32.03;15.57;;;5.50;99.90;;;;;;4456460;32;20551;-66
2021/11/24 08:19:54;;;;;;;32.50;15.87;;;5.50;99.90;;;;;;4457061;32;20196;-67
2021/11/24 08:22:23;;;;;;;31.03;14.80;;;5.40;99.90;;;;;;4455981;32;20396;-66
2021/11/24 08:24:51;;;;;;;30.83;15.43;;;5.40;99.90;;;;;;4452428;32;20312;-66
2021/11/24 08:27:18;;;;;;;31.90;15.37;;;5.40;99.90;;;;;;4440780;32;20201;-66
2021/11/24 08:29:45;;;;;;;32.87;15.83;;;5.40;99.90;;;;;;4442301;32;20139;-66
2021/11/24 08:32:12;;;;;;;34.00;15.97;;;5.40;99.90;;;;;;4438618;32;20181;-66
2021/11/24 08:34:39;;;;;;;36.80;16.17;;;5.40;99.90;;;;;;4439871;32;20571;-66
2021/11/24 08:37:06;;;;;;;33.93;16.03;;;5.40;99.90;;;;;;4439304;32;20183;-66
2021/11/24 08:39:35;;;;;;;31.97;15.23;;;5.40;99.90;;;;;;4441055;32;20533;-66
2021/11/24 08:42:04;;;;;;;31.07;14.53;;;5.40;99.90;;;;;;4440599;32;20173;-66
2021/11/24 08:44:32;;;;;;;30.20;15.33;;;5.40;99.90;;;;;;4438054;32;20172;-66
2021/11/24 08:46:59;;;;;;;34.50;15.40;;;5.50;99.90;;;;;;4438604;32;20235;-66
2021/11/24 08:49:26;;;;;;;30.63;14.77;;;5.50;99.90;;;;;;4439276;32;20195;-66
2021/11/24 08:51:53;;;;;;;31.07;15.13;;;5.50;99.90;;;;;;4438197;32;20177;-66
2021/11/24 08:54:20;;;;;;;31.93;14.53;;;5.60;99.90;;;;;;4452200;32;20213;-66
2021/11/24 08:56:49;;;;;;;28.50;14.40;;;5.60;99.90;;;;;;4438912;32;20172;-66
2021/11/24 08:59:16;;;;;;;27.93;13.77;;;5.60;99.90;;;;;;4426001;32;20192;-66
2021/11/24 09:01:43;;;;;;;32.30;16.20;;;5.60;99.90;;;;;;4442234;32;20235;-66
2021/11/24 09:04:10;;;;;;;31.10;14.30;;;5.60;99.90;;;;;;4451071;32;20187;-66
2021/11/24 09:06:37;;;;;;;30.47;14.93;;;5.60;99.90;;;;;;4453942;32;20194;-66
2021/11/24 09:09:05;;;;;;;32.10;15.70;;;5.50;99.90;;;;;;4455855;32;20150;-66
2021/11/24 09:11:33;;;;;;;31.87;15.57;;;5.50;99.90;;;;;;4454289;32;20207;-66
2021/11/24 09:14:00;;;;;;;31.63;15.00;;;5.50;99.90;;;;;;4455572;32;20171;-66
2021/11/24 09:16:27;;;;;;;31.27;15.13;;;5.50;99.90;;;;;;4453348;32;20255;-66
2021/11/24 09:18:54;;;;;;;30.87;15.37;;;5.50;99.90;;;;;;4453675;32;20193;-66
2021/11/24 09:21:23;;;;;;;32.63;15.00;;;5.50;99.90;;;;;;4454097;32;20190;-66
2021/11/24 09:23:59;;;;;;;35.20;16.40;;;5.40;99.90;;;;;;4455089;32;20191;-66
2021/11/24 09:26:31;;;;;;;33.63;16.17;;;5.40;99.90;;;;;;4454424;32;20191;-66
2021/11/24 09:28:58;;;;;;;33.53;15.87;;;5.40;99.90;;;;;;4453340;32;20200;-66
2021/11/24 09:31:25;;;;;;;34.70;15.97;;;5.40;99.90;;;;;;4453515;32;20228;-66
2021/11/24 09:33:52;;;;;;;37.47;16.97;;;5.40;99.90;;;;;;4453455;32;20226;-66
2021/11/24 09:36:19;;;;;;;39.10;16.93;;;5.50;99.90;;;;;;4455298;32;20198;-66
2021/11/24 09:38:46;;;;;;;36.90;16.90;;;5.50;99.90;;;;;;4453976;32;20179;-66
2021/11/24 09:41:13;;;;;;;35.23;16.37;;;5.60;99.90;;;;;;4454551;32;20191;-66
2021/11/24 09:43:46;;;;;;;31.17;16.00;;;5.60;99.90;;;;;;4453874;32;20255;-66
2021/11/24 09:46:16;;;;;;;29.77;15.30;;;5.70;99.90;;;;;;4453591;32;20236;-66
2021/11/24 09:48:45;;;;;;;34.03;15.33;;;5.70;99.90;;;;;;4452413;32;20199;-66
2021/11/24 09:51:13;;;;;;;29.13;14.30;;;5.80;99.90;;;;;;4453799;32;20201;-66
2021/11/24 09:53:42;;;;;;;27.60;14.87;;;5.80;99.90;;;;;;4455315;32;20158;-66
2021/11/24 09:56:10;;;;;;;31.60;15.57;;;5.80;99.90;;;;;;4451539;32;20179;-66
2021/11/24 09:58:37;;;;;;;28.83;14.73;;;5.90;99.90;;;;;;4452096;32;20173;-66
2021/11/24 10:01:04;;;;;;;31.40;14.60;;;5.90;99.90;;;;;;4453292;32;20184;-66
2021/11/24 10:03:31;;;;;;;31.30;15.97;;;5.80;99.90;;;;;;4454319;32;20241;-68
2021/11/24 10:05:58;;;;;;;29.10;14.80;;;5.80;99.90;;;;;;4452576;32;20193;-67
2021/11/24 10:08:45;;;;;;;27.03;14.30;;;5.90;99.90;;;;;;4454997;32;20543;-66
2021/11/24 10:11:13;;;;;;;28.63;14.57;;;5.90;99.90;;;;;;4453052;32;20413;-67
2021/11/24 10:13:39;;;;;;;29.73;14.17;;;5.80;99.90;;;;;;4454138;32;20186;-66
2021/11/24 10:16:28;;;;;;;28.70;13.40;;;5.80;99.90;;;;;;4455241;32;20400;-66
2021/11/24 10:19:10;;;;;;;26.00;13.17;;;5.80;99.90;;;;;;4452110;32;20402;-66
2021/11/24 10:22:14;;;;;;;29.10;13.40;;;5.80;99.90;;;;;;4454115;32;20431;-67
2021/11/24 10:24:43;;;;;;;26.93;12.90;;;5.90;99.90;;;;;;4378965;32;20190;-67
2021/11/24 10:27:14;;;;;;;23.73;12.53;;;5.90;99.90;;;;;;4379296;32;20193;-66
2021/11/24 10:30:01;;;;;;;27.83;13.37;;;6.00;99.90;;;;;;4389753;32;20176;-67
2021/11/24 10:32:28;;;;;;;25.70;13.13;;;6.00;99.90;;;;;;4377967;32;20203;-66
2021/11/24 10:34:58;;;;;;;26.43;13.33;;;6.00;99.90;;;;;;4378212;32;20215;-67
2021/11/24 10:37:26;;;;;;;26.83;13.50;;;6.00;99.90;;;;;;4375332;32;20243;-66
2021/11/24 10:40:02;;;;;;;26.43;13.47;;;5.90;99.90;;;;;;4364482;32;20403;-66
2021/11/24 10:42:29;;;;;;;26.97;13.63;;;6.00;99.90;;;;;;4363458;32;20202;-66
2021/11/24 10:45:00;;;;;;;26.67;13.37;;;6.00;99.90;;;;;;4363581;32;20509;-66
2021/11/24 10:47:28;;;;;;;27.33;13.63;;;6.00;99.90;;;;;;4375471;32;20519;-65
2021/11/24 10:49:58;;;;;;;25.07;13.57;;;5.90;99.90;;;;;;4363895;32;20228;-66
2021/11/24 10:52:28;;;;;;;26.30;13.70;;;6.00;99.90;;;;;;4365143;32;20593;-67
2021/11/24 10:55:00;;;;;;;28.20;14.43;;;6.00;99.90;;;;;;4372157;32;20214;-66
2021/11/24 10:57:28;;;;;;;28.27;14.70;;;6.00;99.90;;;;;;4364014;32;20165;-65
2021/11/24 11:00:09;;;;;;;31.63;15.13;;;5.90;99.90;;;;;;4438009;32;20222;-65
2021/11/24 11:02:38;;;;;;;24.27;13.23;;;5.90;99.90;;;;;;4439928;32;20190;-66
2021/11/24 11:05:10;;;;;;;27.27;14.13;;;5.90;99.90;;;;;;4440148;32;20229;-66
2021/11/24 11:07:52;;;;;;;28.87;14.90;;;5.90;99.90;;;;;;4441412;32;20198;-66
2021/11/24 11:10:32;;;;;;;27.73;14.47;;;5.90;99.90;;;;;;4440268;32;20227;-67
2021/11/24 11:13:11;;;;;;;30.17;14.30;;;5.90;99.90;;;;;;4440043;32;20184;-66
2021/11/24 11:15:49;;;;;;;26.40;14.33;;;5.90;99.90;;;;;;4440321;32;20385;-66
2021/11/24 11:18:25;;;;;;;27.03;13.80;;;5.90;99.90;;;;;;4439806;32;20184;-67
2021/11/24 11:21:11;;;;;;;28.23;14.43;;;5.90;99.90;;;;;;4441421;32;20218;-66
2021/11/24 11:23:40;;;;;;;29.20;14.70;;;5.90;99.90;;;;;;4441478;32;20204;-65
2021/11/24 11:26:10;;;;;;;26.20;13.10;;;6.00;99.90;;;;;;4441258;32;20182;-65
2021/11/24 11:28:42;;;;;;;29.20;14.23;;;6.00;99.90;;;;;;4443457;32;20188;-66
2021/11/24 11:31:12;;;;;;;26.50;13.90;;;5.90;99.90;;;;;;4446995;32;20225;-66
2021/11/24 11:33:45;;;;;;;29.13;15.07;;;6.00;99.90;;;;;;4442878;32;20474;-66
2021/11/24 11:36:13;;;;;;;26.73;13.87;;;6.00;99.90;;;;;;4448236;32;20175;-66
2021/11/24 11:38:47;;;;;;;27.33;14.47;;;6.10;99.90;;;;;;4439618;32;20174;-66
2021/11/24 11:41:17;;;;;;;30.13;15.10;;;6.10;99.90;;;;;;4439500;32;20549;-66
2021/11/24 11:44:06;;;;;;;26.30;13.70;;;6.20;99.90;;;;;;4440398;32;20297;-65
2021/11/24 11:46:54;;;;;;;25.33;14.13;;;6.30;99.90;;;;;;4438729;32;20235;-66
2021/11/24 11:49:23;;;;;;;29.27;14.67;;;6.30;99.90;;;;;;4439944;32;20228;-66
2021/11/24 11:51:53;;;;;;;27.03;14.00;;;6.30;99.90;;;;;;4440460;32;20182;-68
2021/11/24 11:54:34;;;;;;;26.97;13.70;;;6.30;99.90;;;;;;4438943;32;20491;-66
2021/11/24 11:57:14;;;;;;;25.43;13.50;;;6.30;99.90;;;;;;4439741;32;20552;-66
2021/11/24 11:59:41;;;;;;;25.00;13.63;;;6.30;99.90;;;;;;4440800;32;20192;-67
2021/11/24 12:02:11;;;;;;;25.97;13.33;;;6.30;99.90;;;;;;4440805;32;20176;-67
2021/11/24 12:04:50;;;;;;;27.07;13.67;;;6.30;99.90;;;;;;4439463;32;20406;-66
2021/11/24 12:07:20;;;;;;;23.73;13.20;;;6.30;99.90;;;;;;4439530;32;20270;-66
2021/11/24 12:09:47;;;;;;;23.80;12.80;;;6.20;99.90;;;;;;4440314;32;20258;-66
2021/11/24 12:12:33;;;;;;;26.73;13.93;;;6.20;99.90;;;;;;4438186;32;20435;-66
2021/11/24 12:15:11;;;;;;;24.90;13.23;;;6.10;99.90;;;;;;4440027;32;20175;-66
2021/11/24 12:18:00;;;;;;;25.70;13.67;;;6.10;99.90;;;;;;4440464;32;20228;-66
2021/11/24 12:20:30;;;;;;;23.67;13.20;;;6.10;99.90;;;;;;4438889;32;20190;-66
2021/11/24 12:23:03;;;;;;;27.37;14.37;;;6.20;99.90;;;;;;4438542;32;20177;-66
2021/11/24 12:25:30;;;;;;;26.10;13.67;;;6.20;99.90;;;;;;4439734;32;20237;-66
2021/11/24 12:27:58;;;;;;;25.07;13.37;;;6.20;99.90;;;;;;4440663;32;20400;-66
2021/11/24 12:30:37;;;;;;;25.87;14.07;;;6.20;99.90;;;;;;4438701;32;20180;-66
2021/11/24 12:33:14;;;;;;;26.73;13.73;;;6.20;99.90;;;;;;4439139;32;20175;-66
2021/11/24 12:36:05;;;;;;;25.07;13.93;;;6.20;99.90;;;;;;4440565;32;20170;-66
2021/11/24 12:38:35;;;;;;;26.27;13.67;;;6.20;99.90;;;;;;4432097;32;20545;-66
2021/11/24 12:41:26;;;;;;;26.33;14.23;;;6.10;99.90;;;;;;4439371;32;20175;-66
2021/11/24 12:43:58;;;;;;;27.77;14.50;;;6.20;99.90;;;;;;4439748;32;20238;-66